MiSS Emily — WDF2689 — position and weather

sailwx.info

Track history (hours):
 
Tides and Currents Weather Stations Pressure Air Temp Water Temp Dewpoint Dewpoint Depression Visibility Wind Speed Wind Dir Waves Ship Positions

MiSS Emily

Owner: Marquette Transportation Company Offshore LLC, Jefferson, LA. More information available from US FCC via Universal Licensing System and Coast Guard Vessel Documentation Center.

Last reported at 2018-May-14 06:33 UTC. Time now 2018-Aug-14 15:21 UTC.
Position N 27°46' W 082°38'.
Warning: this ship's position is months out of date.

Type: Tug. MMSI: 367430760.

Date/timePositionNaut miles runAvg speedWind from/ knotsBaromVisibWave heightAir tempDewpointWater temp
2018-May-14 06:33N 27°46' W 082°38'0 4.8
2018-May-14 06:30N 27°46' W 082°38'0 0.2
2018-May-14 06:00N 27°46' W 082°38'0 0.0
2018-May-13 23:45N 27°46' W 082°38'0 0.2
2018-May-13 23:24N 27°46' W 082°38'2 0.1
2018-May-12 22:15N 27°44' W 082°37'2 7.0
2018-May-12 22:00N 27°46' W 082°36'4 8.6
2018-May-12 21:30N 27°47' W 082°32'4 8.9
2018-May-12 21:00N 27°49' W 082°27'4 8.3
2018-May-12 20:30N 27°53' W 082°26'2 3.6
2018-May-12 20:00N 27°54' W 082°25'0 0.0
2018-May-12 19:30N 27°54' W 082°25'0 0.0
2018-May-12 18:59N 27°54' W 082°25'0 0.0
2018-May-12 18:30N 27°54' W 082°25'0 0.0
2018-May-12 18:00N 27°54' W 082°25'0 0.1
2018-May-12 17:30N 27°54' W 082°25'0 0.0
2018-May-12 17:00N 27°54' W 082°25'0 0.0
2018-May-12 16:30N 27°54' W 082°25'0 0.0
2018-May-12 16:00N 27°54' W 082°25'0 0.0
2018-May-12 15:29N 27°54' W 082°25'0 0.0
2018-May-12 15:00N 27°54' W 082°25'1 1.5
2018-May-12 14:30N 27°54' W 082°26'4 7.6
2018-May-12 14:00N 27°51' W 082°27'4 7.7
2018-May-12 13:27N 27°48' W 082°30'4 8.4
2018-May-12 13:00N 27°44' W 082°32'4 8.7
2018-May-12 12:30N 27°41' W 082°35'5 8.8
2018-May-12 11:57N 27°37' W 082°39'10 0.3
2018-May-10 20:22N 27°47' W 082°35'3 9.0
2018-May-10 20:00N 27°50' W 082°34'3 5.7
2018-May-10 19:30N 27°53' W 082°33'1 0.8
2018-May-10 18:49N 27°53' W 082°32'0 0.1
2018-May-10 18:28N 27°53' W 082°32'0 0.1
2018-May-10 17:28N 27°53' W 082°32'0 0.0
2018-May-10 16:55N 27°53' W 082°32'0 0.0
2018-May-10 16:30N 27°53' W 082°32'0 0.0
2018-May-10 16:00N 27°53' W 082°32'0 0.0
2018-May-10 15:28N 27°53' W 082°32'0 0.1
2018-May-10 15:00N 27°53' W 082°32'0 0.1
2018-May-10 14:30N 27°53' W 082°32'0 0.0
2018-May-10 14:00N 27°53' W 082°32'0 0.0
2018-May-10 13:30N 27°53' W 082°32'0 0.1
2018-May-10 13:00N 27°53' W 082°32'0 0.0
2018-May-10 12:30N 27°53' W 082°32'0 0.0
2018-May-10 12:00N 27°53' W 082°32'0 0.1
2018-May-10 11:29N 27°53' W 082°32'0 0.1
2018-May-10 11:00N 27°53' W 082°32'1 1.1
2018-May-10 10:30N 27°53' W 082°33'0 0.1
2018-May-10 10:00N 27°53' W 082°33'1 1.1
2018-May-10 09:30N 27°53' W 082°33'2 4.5
2018-May-10 09:00N 27°51' W 082°34'2 4.4
2018-May-10 08:30N 27°48' W 082°34'3 4.4
2018-May-10 07:54N 27°46' W 082°36'5 0.1
2018-May-08 08:39N 27°42' W 082°33'1 9.2
2018-May-08 08:30N 27°43' W 082°33'5 8.8
2018-May-08 07:59N 27°47' W 082°31'4 8.8
2018-May-08 07:31N 27°49' W 082°27'5 9.0
2018-May-08 07:00N 27°54' W 082°26'1 2.0
2018-May-08 06:30N 27°54' W 082°25'0 0.3
2018-May-08 06:00N 27°54' W 082°25'2 3.1
2018-May-08 05:30N 27°53' W 082°26'4 7.7
2018-May-08 05:00N 27°49' W 082°27'4 7.3
2018-May-08 04:30N 27°47' W 082°30'3 6.9
2018-May-08 04:00N 27°44' W 082°32'4 0.1
2018-May-06 15:53N 27°44' W 082°37'3 6.6
2018-May-06 15:30N 27°47' W 082°36'3 6.6
2018-May-06 15:00N 27°50' W 082°34'3 6.2
2018-May-06 14:30N 27°53' W 082°33'1 1.5
2018-May-06 13:54N 27°53' W 082°32'0 0.0
2018-May-06 13:30N 27°53' W 082°32'0 0.0
2018-May-06 12:54N 27°53' W 082°32'0 0.1
2018-May-06 12:30N 27°53' W 082°32'0 0.0
2018-May-06 12:00N 27°53' W 082°32'0 0.0
2018-May-06 11:30N 27°53' W 082°32'0 0.0
2018-May-06 11:00N 27°53' W 082°32'0 0.0
2018-May-06 10:30N 27°53' W 082°32'0 0.0
2018-May-06 10:00N 27°53' W 082°32'0 0.0
2018-May-06 09:30N 27°53' W 082°32'0 0.0
2018-May-06 09:00N 27°53' W 082°32'0 0.0
2018-May-06 08:27N 27°53' W 082°32'0 0.0
2018-May-06 08:00N 27°53' W 082°32'0 0.0
2018-May-06 07:30N 27°53' W 082°32'0 0.0
2018-May-06 07:00N 27°53' W 082°32'0 0.0
2018-May-06 06:30N 27°53' W 082°32'0 0.0
2018-May-06 05:57N 27°53' W 082°32'0 0.0
2018-May-06 05:30N 27°53' W 082°32'0 0.0
2018-May-06 05:00N 27°53' W 082°32'0 0.0
2018-May-06 04:30N 27°53' W 082°32'0 0.0
2018-May-06 04:00N 27°53' W 082°32'0 0.0
2018-May-06 03:30N 27°53' W 082°32'0 0.0
2018-May-06 03:00N 27°53' W 082°32'0 0.0
2018-May-06 02:30N 27°53' W 082°32'0 0.0
2018-May-06 02:00N 27°53' W 082°32'0 0.0
2018-May-06 01:30N 27°53' W 082°32'0 0.0
2018-May-06 01:00N 27°53' W 082°32'0 0.0
2018-May-06 00:30N 27°53' W 082°32'0 0.0
2018-May-06 00:00N 27°53' W 082°32'0 0.0
2018-May-05 23:30N 27°53' W 082°32'0 0.0
2018-May-05 23:00N 27°53' W 082°32'0 0.0
2018-May-05 22:30N 27°53' W 082°32'0 0.0
2018-May-05 22:00N 27°53' W 082°32'0 0.0
2018-May-05 21:30N 27°53' W 082°32'0 0.1
2018-May-05 20:59N 27°53' W 082°32'0 0.0
2018-May-05 20:27N 27°53' W 082°32'0 0.6
2018-May-05 20:00N 27°53' W 082°33'0 0.1
2018-May-05 19:28N 27°53' W 082°33'0 0.0
2018-May-05 17:55N 27°53' W 082°33'0 0.0
2018-May-05 17:28N 27°53' W 082°33'0 0.0
2018-May-05 16:58N 27°53' W 082°33'0 0.0
2018-May-05 16:28N 27°53' W 082°33'0 0.0
2018-May-05 15:58N 27°53' W 082°33'0 0.0
2018-May-05 15:28N 27°53' W 082°33'0 0.0
2018-May-05 15:00N 27°53' W 082°33'0 0.0
2018-May-05 14:30N 27°53' W 082°33'0 0.0
2018-May-05 14:00N 27°53' W 082°33'0 0.0
2018-May-05 13:30N 27°53' W 082°33'0 0.1
2018-May-05 13:00N 27°53' W 082°33'0 0.2
2018-May-05 12:30N 27°53' W 082°32'0 0.1
2018-May-05 12:00N 27°53' W 082°32'0 0.1
2018-May-05 11:30N 27°53' W 082°32'0 0.0
2018-May-05 11:00N 27°53' W 082°32'0 0.0
2018-May-05 10:30N 27°53' W 082°32'0 0.0
2018-May-05 10:00N 27°53' W 082°32'0 0.0
2018-May-05 09:30N 27°53' W 082°32'0 0.0
2018-May-05 09:00N 27°53' W 082°32'0 0.0
2018-May-05 08:30N 27°53' W 082°32'0 0.0
2018-May-05 08:00N 27°53' W 082°32'0 0.0
2018-May-05 07:30N 27°53' W 082°32'0 0.0
2018-May-05 07:00N 27°53' W 082°32'0 0.0
2018-May-05 06:30N 27°53' W 082°32'0 0.0
2018-May-05 06:00N 27°53' W 082°32'0 0.0
2018-May-05 05:30N 27°53' W 082°32'0 0.0
2018-May-05 05:00N 27°53' W 082°32'0 0.0
2018-May-05 04:30N 27°53' W 082°32'0 0.0
2018-May-05 04:00N 27°53' W 082°32'0 0.0
2018-May-05 03:30N 27°53' W 082°32'0 0.0
2018-May-05 03:00N 27°53' W 082°32'0 0.0
2018-May-05 02:30N 27°53' W 082°32'0 0.0
2018-May-05 01:59N 27°53' W 082°32'0 0.0
2018-May-05 01:27N 27°53' W 082°32'0 0.0
2018-May-05 00:44N 27°53' W 082°32'0 0.0
2018-May-05 00:20N 27°53' W 082°32'0 0.0
2018-May-04 23:56N 27°53' W 082°32'0 0.1
2018-May-04 23:30N 27°53' W 082°32'0 0.0
2018-May-04 23:00N 27°53' W 082°32'3 6.0
2018-May-04 22:31N 27°51' W 082°34'5 7.2
2018-May-04 21:44N 27°46' W 082°36'1 0.2
2018-May-04 18:04N 27°45' W 082°36'1 7.9
2018-May-04 18:00N 27°46' W 082°36'4 8.2
2018-May-04 17:30N 27°49' W 082°34'4 8.0
2018-May-04 17:00N 27°53' W 082°33'1 1.2
2018-May-04 16:30N 27°53' W 082°33'4 8.0
2018-May-04 16:00N 27°49' W 082°34'3 6.2
2018-May-04 15:27N 27°46' W 082°37'  
Track history (hours):
 
Tides and Currents Weather Stations Pressure Air Temp Water Temp Dewpoint Dewpoint Depression Visibility Wind Speed Wind Dir Waves Ship Positions

MiSS Emily

Owner: Marquette Transportation Company Offshore LLC, Jefferson, LA. More information available from US FCC via Universal Licensing System and Coast Guard Vessel Documentation Center.

Last reported at 2018-May-14 06:33 UTC. Time now 2018-Aug-14 15:21 UTC.
Position N 27°46' W 082°38'.
Warning: this ship's position is months out of date.

Type: Tug. MMSI: 367430760.

Date/timePositionNaut miles runAvg speedWind from/ knotsBaromVisibWave heightAir tempDewpointWater temp
2018-May-14 06:33N 27°46' W 082°38'0 4.8
2018-May-14 06:30N 27°46' W 082°38'0 0.2
2018-May-14 06:00N 27°46' W 082°38'0 0.0
2018-May-13 23:45N 27°46' W 082°38'0 0.2
2018-May-13 23:24N 27°46' W 082°38'2 0.1
2018-May-12 22:15N 27°44' W 082°37'2 7.0
2018-May-12 22:00N 27°46' W 082°36'4 8.6
2018-May-12 21:30N 27°47' W 082°32'4 8.9
2018-May-12 21:00N 27°49' W 082°27'4 8.3
2018-May-12 20:30N 27°53' W 082°26'2 3.6
2018-May-12 20:00N 27°54' W 082°25'0 0.0
2018-May-12 19:30N 27°54' W 082°25'0 0.0
2018-May-12 18:59N 27°54' W 082°25'0 0.0
2018-May-12 18:30N 27°54' W 082°25'0 0.0
2018-May-12 18:00N 27°54' W 082°25'0 0.1
2018-May-12 17:30N 27°54' W 082°25'0 0.0
2018-May-12 17:00N 27°54' W 082°25'0 0.0
2018-May-12 16:30N 27°54' W 082°25'0 0.0
2018-May-12 16:00N 27°54' W 082°25'0 0.0
2018-May-12 15:29N 27°54' W 082°25'0 0.0
2018-May-12 15:00N 27°54' W 082°25'1 1.5
2018-May-12 14:30N 27°54' W 082°26'4 7.6
2018-May-12 14:00N 27°51' W 082°27'4 7.7
2018-May-12 13:27N 27°48' W 082°30'4 8.4
2018-May-12 13:00N 27°44' W 082°32'4 8.7
2018-May-12 12:30N 27°41' W 082°35'5 8.8
2018-May-12 11:57N 27°37' W 082°39'10 0.3
2018-May-10 20:22N 27°47' W 082°35'3 9.0
2018-May-10 20:00N 27°50' W 082°34'3 5.7
2018-May-10 19:30N 27°53' W 082°33'1 0.8
2018-May-10 18:49N 27°53' W 082°32'0 0.1
2018-May-10 18:28N 27°53' W 082°32'0 0.1
2018-May-10 17:28N 27°53' W 082°32'0 0.0
2018-May-10 16:55N 27°53' W 082°32'0 0.0
2018-May-10 16:30N 27°53' W 082°32'0 0.0
2018-May-10 16:00N 27°53' W 082°32'0 0.0
2018-May-10 15:28N 27°53' W 082°32'0 0.1
2018-May-10 15:00N 27°53' W 082°32'0 0.1
2018-May-10 14:30N 27°53' W 082°32'0 0.0
2018-May-10 14:00N 27°53' W 082°32'0 0.0
2018-May-10 13:30N 27°53' W 082°32'0 0.1
2018-May-10 13:00N 27°53' W 082°32'0 0.0
2018-May-10 12:30N 27°53' W 082°32'0 0.0
2018-May-10 12:00N 27°53' W 082°32'0 0.1
2018-May-10 11:29N 27°53' W 082°32'0 0.1
2018-May-10 11:00N 27°53' W 082°32'1 1.1
2018-May-10 10:30N 27°53' W 082°33'0 0.1
2018-May-10 10:00N 27°53' W 082°33'1 1.1
2018-May-10 09:30N 27°53' W 082°33'2 4.5
2018-May-10 09:00N 27°51' W 082°34'2 4.4
2018-May-10 08:30N 27°48' W 082°34'3 4.4
2018-May-10 07:54N 27°46' W 082°36'5 0.1
2018-May-08 08:39N 27°42' W 082°33'1 9.2
2018-May-08 08:30N 27°43' W 082°33'5 8.8
2018-May-08 07:59N 27°47' W 082°31'4 8.8
2018-May-08 07:31N 27°49' W 082°27'5 9.0
2018-May-08 07:00N 27°54' W 082°26'1 2.0
2018-May-08 06:30N 27°54' W 082°25'0 0.3
2018-May-08 06:00N 27°54' W 082°25'2 3.1
2018-May-08 05:30N 27°53' W 082°26'4 7.7
2018-May-08 05:00N 27°49' W 082°27'4 7.3
2018-May-08 04:30N 27°47' W 082°30'3 6.9
2018-May-08 04:00N 27°44' W 082°32'4 0.1
2018-May-06 15:53N 27°44' W 082°37'3 6.6
2018-May-06 15:30N 27°47' W 082°36'3 6.6
2018-May-06 15:00N 27°50' W 082°34'3 6.2
2018-May-06 14:30N 27°53' W 082°33'1 1.5
2018-May-06 13:54N 27°53' W 082°32'0 0.0
2018-May-06 13:30N 27°53' W 082°32'0 0.0
2018-May-06 12:54N 27°53' W 082°32'0 0.1
2018-May-06 12:30N 27°53' W 082°32'0 0.0
2018-May-06 12:00N 27°53' W 082°32'0 0.0
2018-May-06 11:30N 27°53' W 082°32'0 0.0
2018-May-06 11:00N 27°53' W 082°32'0 0.0
2018-May-06 10:30N 27°53' W 082°32'0 0.0
2018-May-06 10:00N 27°53' W 082°32'0 0.0
2018-May-06 09:30N 27°53' W 082°32'0 0.0
2018-May-06 09:00N 27°53' W 082°32'0 0.0
2018-May-06 08:27N 27°53' W 082°32'0 0.0
2018-May-06 08:00N 27°53' W 082°32'0 0.0
2018-May-06 07:30N 27°53' W 082°32'0 0.0
2018-May-06 07:00N 27°53' W 082°32'0 0.0
2018-May-06 06:30N 27°53' W 082°32'0 0.0
2018-May-06 05:57N 27°53' W 082°32'0 0.0
2018-May-06 05:30N 27°53' W 082°32'0 0.0
2018-May-06 05:00N 27°53' W 082°32'0 0.0
2018-May-06 04:30N 27°53' W 082°32'0 0.0
2018-May-06 04:00N 27°53' W 082°32'0 0.0
2018-May-06 03:30N 27°53' W 082°32'0 0.0
2018-May-06 03:00N 27°53' W 082°32'0 0.0
2018-May-06 02:30N 27°53' W 082°32'0 0.0
2018-May-06 02:00N 27°53' W 082°32'0 0.0
2018-May-06 01:30N 27°53' W 082°32'0 0.0
2018-May-06 01:00N 27°53' W 082°32'0 0.0
2018-May-06 00:30N 27°53' W 082°32'0 0.0
2018-May-06 00:00N 27°53' W 082°32'0 0.0
2018-May-05 23:30N 27°53' W 082°32'0 0.0
2018-May-05 23:00N 27°53' W 082°32'0 0.0
2018-May-05 22:30N 27°53' W 082°32'0 0.0
2018-May-05 22:00N 27°53' W 082°32'0 0.0
2018-May-05 21:30N 27°53' W 082°32'0 0.1
2018-May-05 20:59N 27°53' W 082°32'0 0.0
2018-May-05 20:27N 27°53' W 082°32'0 0.6
2018-May-05 20:00N 27°53' W 082°33'0 0.1
2018-May-05 19:28N 27°53' W 082°33'0 0.0
2018-May-05 17:55N 27°53' W 082°33'0 0.0
2018-May-05 17:28N 27°53' W 082°33'0 0.0
2018-May-05 16:58N 27°53' W 082°33'0 0.0
2018-May-05 16:28N 27°53' W 082°33'0 0.0
2018-May-05 15:58N 27°53' W 082°33'0 0.0
2018-May-05 15:28N 27°53' W 082°33'0 0.0
2018-May-05 15:00N 27°53' W 082°33'0 0.0
2018-May-05 14:30N 27°53' W 082°33'0 0.0
2018-May-05 14:00N 27°53' W 082°33'0 0.0
2018-May-05 13:30N 27°53' W 082°33'0 0.1
2018-May-05 13:00N 27°53' W 082°33'0 0.2
2018-May-05 12:30N 27°53' W 082°32'0 0.1
2018-May-05 12:00N 27°53' W 082°32'0 0.1
2018-May-05 11:30N 27°53' W 082°32'0 0.0
2018-May-05 11:00N 27°53' W 082°32'0 0.0
2018-May-05 10:30N 27°53' W 082°32'0 0.0
2018-May-05 10:00N 27°53' W 082°32'0 0.0
2018-May-05 09:30N 27°53' W 082°32'0 0.0
2018-May-05 09:00N 27°53' W 082°32'0 0.0
2018-May-05 08:30N 27°53' W 082°32'0 0.0
2018-May-05 08:00N 27°53' W 082°32'0 0.0
2018-May-05 07:30N 27°53' W 082°32'0 0.0
2018-May-05 07:00N 27°53' W 082°32'0 0.0
2018-May-05 06:30N 27°53' W 082°32'0 0.0
2018-May-05 06:00N 27°53' W 082°32'0 0.0
2018-May-05 05:30N 27°53' W 082°32'0 0.0
2018-May-05 05:00N 27°53' W 082°32'0 0.0
2018-May-05 04:30N 27°53' W 082°32'0 0.0
2018-May-05 04:00N 27°53' W 082°32'0 0.0
2018-May-05 03:30N 27°53' W 082°32'0 0.0
2018-May-05 03:00N 27°53' W 082°32'0 0.0
2018-May-05 02:30N 27°53' W 082°32'0 0.0
2018-May-05 01:59N 27°53' W 082°32'0 0.0
2018-May-05 01:27N 27°53' W 082°32'0 0.0
2018-May-05 00:44N 27°53' W 082°32'0 0.0
2018-May-05 00:20N 27°53' W 082°32'0 0.0
2018-May-04 23:56N 27°53' W 082°32'0 0.1
2018-May-04 23:30N 27°53' W 082°32'0 0.0
2018-May-04 23:00N 27°53' W 082°32'3 6.0
2018-May-04 22:31N 27°51' W 082°34'5 7.2
2018-May-04 21:44N 27°46' W 082°36'1 0.2
2018-May-04 18:04N 27°45' W 082°36'1 7.9
2018-May-04 18:00N 27°46' W 082°36'4 8.2
2018-May-04 17:30N 27°49' W 082°34'4 8.0
2018-May-04 17:00N 27°53' W 082°33'1 1.2
2018-May-04 16:30N 27°53' W 082°33'4 8.0
2018-May-04 16:00N 27°49' W 082°34'3 6.2
2018-May-04 15:27N 27°46' W 082°37'  

Dump ship's entire track history